createdAt,value
2018-03-14T00:00:39.225Z,83.60
2018-03-14T00:03:07.486Z,83.70
2018-03-14T00:05:35.017Z,83.70
2018-03-14T00:08:02.528Z,83.40
2018-03-14T00:10:30.003Z,83.50
2018-03-14T00:12:57.504Z,83.20
2018-03-14T00:15:26.093Z,83.40
2018-03-14T00:17:53.600Z,83.40
2018-03-14T00:20:21.125Z,83.30
2018-03-14T00:22:49.385Z,83.30
2018-03-14T00:25:16.862Z,82.80
2018-03-14T00:27:44.341Z,83.50
2018-03-14T00:30:11.814Z,83.20
2018-03-14T00:32:40.074Z,82.90
2018-03-14T00:35:07.606Z,82.90
2018-03-14T00:37:35.109Z,83.20
2018-03-14T00:40:02.846Z,83.30
2018-03-14T00:42:30.320Z,83.40
2018-03-14T00:44:57.769Z,82.50
2018-03-14T00:47:28.428Z,82.20
2018-03-14T00:49:56.162Z,82.20
2018-03-14T00:52:23.636Z,82.60
2018-03-14T00:54:51.116Z,83.40
2018-03-14T00:57:19.351Z,83.50
2018-03-14T00:59:46.832Z,83.50
2018-03-14T01:02:14.354Z,82.90
2018-03-14T01:04:42.591Z,83.10
2018-03-14T01:07:10.088Z,83.00
2018-03-14T01:09:37.560Z,83.10
2018-03-14T01:12:05.831Z,83.50
2018-03-14T01:14:33.352Z,83.40
2018-03-14T01:17:00.809Z,83.20
2018-03-14T01:19:29.045Z,83.10
2018-03-14T01:21:56.541Z,83.00
2018-03-14T01:24:27.990Z,83.10
2018-03-14T01:27:02.354Z,83.50
2018-03-14T01:29:30.608Z,83.80
2018-03-14T01:31:58.420Z,83.70
2018-03-14T01:34:26.700Z,83.40
2018-03-14T01:36:54.162Z,83.40
2018-03-14T01:39:21.617Z,83.30
2018-03-14T01:41:49.110Z,83.60
2018-03-14T01:44:17.410Z,83.50
2018-03-14T01:46:45.663Z,83.60
2018-03-14T01:49:13.162Z,83.60
2018-03-14T01:51:41.248Z,83.50
2018-03-14T01:54:09.524Z,83.20
2018-03-14T01:56:37.847Z,83.30
2018-03-14T01:59:05.297Z,83.30
2018-03-14T02:01:33.568Z,82.90
2018-03-14T02:04:01.830Z,83.10
2018-03-14T02:06:29.553Z,83.10
2018-03-14T02:08:57.117Z,83.00
2018-03-14T02:11:25.370Z,83.10
2018-03-14T02:13:54.090Z,83.10
2018-03-14T02:16:21.718Z,82.70
2018-03-14T02:18:49.364Z,83.10
2018-03-14T02:21:17.965Z,83.20
2018-03-14T02:23:45.452Z,83.20
2018-03-14T02:26:12.950Z,83.30
2018-03-14T02:28:40.410Z,82.70
2018-03-14T02:31:07.892Z,82.80
2018-03-14T02:33:35.394Z,82.80
2018-03-14T02:36:03.658Z,83.00
2018-03-14T02:38:31.280Z,83.00
2018-03-14T02:40:58.746Z,83.00
2018-03-14T02:43:28.223Z,83.10
2018-03-14T02:45:56.452Z,83.20
2018-03-14T02:48:23.964Z,83.20
2018-03-14T02:50:51.467Z,83.00
2018-03-14T02:53:19.005Z,83.00
2018-03-14T02:55:46.528Z,83.20
2018-03-14T02:58:14.006Z,83.30
2018-03-14T03:00:41.506Z,83.30
2018-03-14T03:03:09.005Z,83.50
2018-03-14T03:05:37.282Z,83.40
2018-03-14T03:08:04.768Z,83.20
2018-03-14T03:10:33.025Z,83.30
2018-03-14T03:13:00.552Z,83.30
2018-03-14T03:15:28.056Z,83.20
2018-03-14T03:17:55.528Z,83.40
2018-03-14T03:20:23.020Z,83.60
2018-03-14T03:22:52.023Z,83.80
2018-03-14T03:25:19.500Z,83.80
2018-03-14T03:27:47.770Z,83.50
2018-03-14T03:30:15.257Z,83.40
2018-03-14T03:32:43.516Z,83.10
2018-03-14T03:35:11.277Z,83.10
2018-03-14T03:37:38.747Z,82.70
2018-03-14T03:40:06.234Z,83.10
2018-03-14T03:42:34.478Z,83.00
2018-03-14T03:45:01.981Z,83.00
2018-03-14T03:47:29.486Z,83.00
2018-03-14T03:49:57.004Z,83.40
2018-03-14T03:52:24.488Z,84.00
2018-03-14T03:54:51.961Z,83.10
2018-03-14T03:57:19.548Z,83.10
2018-03-14T03:59:47.057Z,83.00
2018-03-14T04:02:14.574Z,83.20
2018-03-14T04:04:42.061Z,82.60
2018-03-14T04:07:09.552Z,83.00
2018-03-14T04:09:37.023Z,83.20
2018-03-14T04:12:05.366Z,83.60
2018-03-14T04:14:33.798Z,83.50
2018-03-14T04:17:01.297Z,83.30
2018-03-14T04:19:28.790Z,83.30
2018-03-14T04:21:56.327Z,83.50
2018-03-14T04:24:23.801Z,83.60
2018-03-14T04:26:51.308Z,83.50
2018-03-14T04:29:18.814Z,83.60
2018-03-14T04:31:47.470Z,84.00
2018-03-14T04:34:14.954Z,83.90
2018-03-14T04:36:42.433Z,83.70
2018-03-14T04:39:09.914Z,83.50
2018-03-14T04:41:38.160Z,82.90
2018-03-14T04:44:05.662Z,82.80
2018-03-14T04:46:33.162Z,83.30
2018-03-14T04:49:01.442Z,83.90
2018-03-14T04:51:29.263Z,83.90
2018-03-14T04:53:56.985Z,84.00
2018-03-14T04:56:25.261Z,83.70
2018-03-14T04:58:52.795Z,83.70
2018-03-14T05:01:20.373Z,83.30
2018-03-14T05:03:47.870Z,82.80
2018-03-14T05:06:16.122Z,82.80
2018-03-14T05:08:43.610Z,82.70
2018-03-14T05:11:11.934Z,83.10
2018-03-14T05:13:39.869Z,83.10
2018-03-14T05:16:07.330Z,83.20
2018-03-14T05:18:35.589Z,82.80
2018-03-14T05:21:03.102Z,82.80
2018-03-14T05:23:30.585Z,83.10
2018-03-14T05:25:58.823Z,83.10
2018-03-14T05:28:26.910Z,83.10
2018-03-14T05:30:55.137Z,83.50
2018-03-14T05:33:22.630Z,83.40
2018-03-14T05:35:50.183Z,83.20
2018-03-14T05:38:17.708Z,83.00
2018-03-14T05:40:45.172Z,83.00
2018-03-14T05:43:12.665Z,83.20
2018-03-14T05:45:40.984Z,83.70
2018-03-14T05:48:09.593Z,83.70
2018-03-14T05:50:37.093Z,83.70
2018-03-14T05:53:04.596Z,83.50
2018-03-14T05:55:32.102Z,83.60
2018-03-14T05:57:59.624Z,83.70
2018-03-14T06:00:27.861Z,84.00
2018-03-14T06:02:55.397Z,83.90
2018-03-14T06:05:22.908Z,84.00
2018-03-14T06:07:50.360Z,84.70
2018-03-14T06:10:18.644Z,83.00
2018-03-14T06:12:46.131Z,83.00
2018-03-14T06:15:34.871Z,83.10
2018-03-14T06:18:02.370Z,83.10
2018-03-14T06:20:33.720Z,83.00
2018-03-14T06:23:01.220Z,82.80
2018-03-14T06:25:28.730Z,83.00
2018-03-14T06:27:56.983Z,83.00
2018-03-14T06:30:24.472Z,83.00
2018-03-14T06:32:52.811Z,83.00
2018-03-14T06:35:20.430Z,83.00
2018-03-14T06:37:50.780Z,82.70
2018-03-14T06:40:22.831Z,82.70
2018-03-14T06:42:51.226Z,82.50
2018-03-14T06:45:19.597Z,82.50
2018-03-14T06:47:47.978Z,82.10
2018-03-14T06:50:16.050Z,82.10
2018-03-14T06:52:45.906Z,82.40
2018-03-14T06:55:14.189Z,82.80
2018-03-14T06:57:42.470Z,82.70
2018-03-14T07:00:23.384Z,83.00
2018-03-14T07:03:02.749Z,83.00
2018-03-14T07:05:44.400Z,83.10
2018-03-14T07:08:20.551Z,82.60
2018-03-14T07:10:48.361Z,82.30
2018-03-14T07:13:16.673Z,80.40
2018-03-14T07:15:45.052Z,81.30
2018-03-14T07:18:23.204Z,81.30
2018-03-14T07:20:50.708Z,81.10
2018-03-14T07:23:18.193Z,81.50
2018-03-14T07:25:45.784Z,81.30
2018-03-14T07:28:13.484Z,81.40
2018-03-14T07:30:40.994Z,81.60
2018-03-14T07:33:10.274Z,82.60
2018-03-14T07:35:38.677Z,81.90
2018-03-14T07:38:08.760Z,81.40
2018-03-14T07:40:39.460Z,81.40
2018-03-14T07:43:16.479Z,81.60
2018-03-14T07:45:44.984Z,81.40
2018-03-14T07:48:12.458Z,81.40
2018-03-14T07:50:45.083Z,81.20
2018-03-14T07:53:12.598Z,81.40
2018-03-14T07:55:44.677Z,80.60
2018-03-14T07:58:14.054Z,81.30
2018-03-14T08:00:52.630Z,81.10
2018-03-14T08:03:20.137Z,81.10
2018-03-14T08:05:47.688Z,81.20
2018-03-14T08:08:28.916Z,81.20
2018-03-14T08:10:58.227Z,81.80
2018-03-14T08:13:25.868Z,81.40
2018-03-14T08:16:10.933Z,81.10
2018-03-14T08:18:38.712Z,81.10
2018-03-14T08:21:07.765Z,81.40
2018-03-14T08:23:36.249Z,81.60
2018-03-14T08:26:03.801Z,81.70
2018-03-14T08:28:31.333Z,81.30
2018-03-14T08:30:59.088Z,81.20
2018-03-14T08:33:26.719Z,81.30
2018-03-14T08:35:54.511Z,81.70
2018-03-14T08:38:28.986Z,82.30
2018-03-14T08:40:59.929Z,82.30
2018-03-14T08:43:31.890Z,81.40
2018-03-14T08:45:59.800Z,82.20
2018-03-14T08:48:28.032Z,81.70
2018-03-14T08:51:08.118Z,81.80
2018-03-14T08:53:36.804Z,81.80
2018-03-14T08:56:04.615Z,81.50
2018-03-14T08:58:32.221Z,81.60
2018-03-14T09:01:00.954Z,81.40
2018-03-14T09:03:28.482Z,82.60
2018-03-14T09:05:55.974Z,82.00
2018-03-14T09:08:28.365Z,81.60
2018-03-14T09:10:55.920Z,81.70
2018-03-14T09:13:23.505Z,81.80
2018-03-14T09:15:53.128Z,81.90
2018-03-14T09:18:22.712Z,82.70
2018-03-14T09:20:50.744Z,82.60
2018-03-14T09:23:39.492Z,82.50
2018-03-14T09:26:16.519Z,82.10
2018-03-14T09:28:49.923Z,82.10
2018-03-14T09:31:18.277Z,82.10
2018-03-14T09:33:45.765Z,82.00
2018-03-14T09:36:14.331Z,82.50
2018-03-14T09:38:41.830Z,82.20
2018-03-14T09:41:10.442Z,82.10
2018-03-14T09:43:39.185Z,82.20
2018-03-14T09:46:07.553Z,82.10
2018-03-14T09:48:38.963Z,81.90
2018-03-14T09:51:14.750Z,81.40
2018-03-14T09:53:56.528Z,80.00
2018-03-14T09:56:42.704Z,81.10
2018-03-14T09:59:14.751Z,81.10
2018-03-14T10:01:46.445Z,81.10
2018-03-14T10:04:15.568Z,81.20
2018-03-14T10:06:43.054Z,79.90
2018-03-14T10:09:10.572Z,79.50
2018-03-14T10:11:40.915Z,81.00
2018-03-14T10:14:09.089Z,81.00
2018-03-14T10:16:37.870Z,80.60
2018-03-14T10:19:05.466Z,80.60
2018-03-14T10:21:36.760Z,80.20
2018-03-14T10:24:05.167Z,80.20
2018-03-14T10:26:43.749Z,80.20
2018-03-14T10:29:12.164Z,80.20
2018-03-14T10:31:44.567Z,80.10
2018-03-14T10:34:13.576Z,79.90
2018-03-14T10:36:44.544Z,79.80
2018-03-14T10:39:12.857Z,80.10
2018-03-14T10:41:44.473Z,80.10
2018-03-14T10:44:12.286Z,80.10
2018-03-14T10:46:40.722Z,81.10
2018-03-14T10:49:10.082Z,80.20
2018-03-14T10:51:38.755Z,81.30
2018-03-14T10:54:10.199Z,80.30
2018-03-14T10:56:38.793Z,80.30
2018-03-14T10:59:09.146Z,79.70
2018-03-14T11:01:48.292Z,79.70
2018-03-14T11:04:19.773Z,80.10
2018-03-14T11:06:52.897Z,80.00
2018-03-14T11:09:21.411Z,79.60
2018-03-14T11:11:49.176Z,79.20
2018-03-14T11:14:20.324Z,78.30
2018-03-14T11:16:48.802Z,78.70
2018-03-14T11:19:16.395Z,78.70
2018-03-14T11:21:44.780Z,78.50
2018-03-14T11:24:13.370Z,78.50
2018-03-14T11:26:41.304Z,79.10
2018-03-14T11:29:10.107Z,79.10
2018-03-14T11:31:39.149Z,78.40
2018-03-14T11:34:07.278Z,77.40
2018-03-14T11:36:39.401Z,76.30
2018-03-14T11:39:07.519Z,76.30
2018-03-14T11:41:35.507Z,76.40
2018-03-14T11:44:03.236Z,75.70
2018-03-14T11:46:30.930Z,75.30
2018-03-14T11:49:00.735Z,74.60
2018-03-14T11:51:29.130Z,74.20
2018-03-14T11:53:57.105Z,74.20
2018-03-14T11:56:24.792Z,74.80
2018-03-14T11:58:53.568Z,74.10
2018-03-14T12:06:41.965Z,73.70
2018-03-14T12:09:09.470Z,73.50
2018-03-14T12:11:37.037Z,74.20
2018-03-14T12:14:11.622Z,74.00
2018-03-14T12:25:42.307Z,73.50
2018-03-14T12:28:12.206Z,73.00
2018-03-14T12:31:03.723Z,73.00
2018-03-14T12:36:12.492Z,71.80
2018-03-14T12:38:40.011Z,71.70
2018-03-14T12:41:17.960Z,71.50
2018-03-14T12:43:46.358Z,71.10
2018-03-14T12:46:15.939Z,71.10
2018-03-14T12:48:43.433Z,70.90
2018-03-14T12:51:10.961Z,69.60
2018-03-14T12:53:54.606Z,67.80
2018-03-14T12:56:22.201Z,68.10
2018-03-14T12:58:49.738Z,69.00
2018-03-14T13:01:21.542Z,68.20
2018-03-14T13:03:58.492Z,66.30
2018-03-14T13:06:29.766Z,65.70
2018-03-14T13:15:13.646Z,66.60
2018-03-14T13:17:41.927Z,65.30
2018-03-14T13:20:10.712Z,65.70
2018-03-14T13:25:16.218Z,65.40
2018-03-14T13:27:51.268Z,65.90
2018-03-14T13:30:21.503Z,65.80
2018-03-14T13:32:51.017Z,65.80
2018-03-14T13:35:18.481Z,66.20
2018-03-14T13:43:46.449Z,65.30
2018-03-14T13:46:42.637Z,67.70
2018-03-14T13:49:29.990Z,67.70
2018-03-14T13:54:58.185Z,65.70
2018-03-14T14:00:10.553Z,65.00
2018-03-14T14:02:38.034Z,65.40
2018-03-14T14:05:12.249Z,65.60
2018-03-14T14:07:41.113Z,64.70
2018-03-14T14:10:12.046Z,63.60
2018-03-14T14:12:41.158Z,64.20
2018-03-14T14:15:11.182Z,64.60
2018-03-14T14:17:40.551Z,64.00
2018-03-14T14:20:12.095Z,62.50
2018-03-14T14:22:40.624Z,62.60
2018-03-14T14:25:12.022Z,63.30
2018-03-14T14:27:39.541Z,61.70
2018-03-14T14:30:07.066Z,62.10
2018-03-14T14:32:40.549Z,62.50
2018-03-14T14:35:08.079Z,62.20
2018-03-14T14:37:41.946Z,62.00
2018-03-14T14:40:12.477Z,62.30
2018-03-14T14:42:42.524Z,60.90
2018-03-14T14:45:10.949Z,60.00
2018-03-14T14:47:41.692Z,60.70
2018-03-14T14:50:09.225Z,59.80
2018-03-14T14:52:39.479Z,60.00
2018-03-14T14:55:11.070Z,59.50
2018-03-14T14:57:38.574Z,59.40
2018-03-14T15:00:10.610Z,57.50
2018-03-14T15:02:41.281Z,57.50
2018-03-14T15:05:12.245Z,56.80
2018-03-14T15:07:42.900Z,56.80
2018-03-14T15:10:12.408Z,57.60
2018-03-14T15:12:40.822Z,58.00
2018-03-14T15:15:10.396Z,58.50
2018-03-14T15:17:41.688Z,59.00
2018-03-14T15:20:10.998Z,60.70
2018-03-14T15:22:39.314Z,60.40
2018-03-14T15:25:08.332Z,60.10
2018-03-14T15:27:36.729Z,60.00
2018-03-14T15:30:04.693Z,59.50
2018-03-14T15:35:58.318Z,60.10
2018-03-14T15:41:41.018Z,57.20
2018-03-14T15:44:10.496Z,56.70
2018-03-14T15:46:39.559Z,57.70
2018-03-14T15:49:13.095Z,58.50
2018-03-14T15:51:41.382Z,58.20
2018-03-14T15:54:16.722Z,58.10
2018-03-14T15:56:44.274Z,58.10
2018-03-14T15:59:17.515Z,57.00
2018-03-14T16:01:45.805Z,55.40
2018-03-14T16:04:13.348Z,55.30
2018-03-14T16:06:40.838Z,55.50
2018-03-14T16:09:09.155Z,57.50
2018-03-14T16:11:36.746Z,57.50
2018-03-14T16:14:04.989Z,57.90
2018-03-14T16:16:33.291Z,57.60
2018-03-14T16:19:01.152Z,57.50
2018-03-14T16:21:29.414Z,57.10
2018-03-14T16:23:56.910Z,57.10
2018-03-14T16:26:25.361Z,56.80
2018-03-14T16:28:52.860Z,56.70
2018-03-14T16:31:20.405Z,57.10
2018-03-14T16:33:47.931Z,57.30
2018-03-14T16:36:16.318Z,57.20
2018-03-14T16:38:44.619Z,57.70
2018-03-14T16:41:12.120Z,57.70
2018-03-14T16:43:39.673Z,57.40
2018-03-14T16:46:07.937Z,58.20
2018-03-14T16:48:35.394Z,58.10
2018-03-14T16:51:03.675Z,58.30
2018-03-14T16:53:31.157Z,58.20
2018-03-14T16:55:58.696Z,58.60
2018-03-14T16:58:26.407Z,59.30
2018-03-14T17:01:00.256Z,60.00
2018-03-14T17:03:27.806Z,60.10
2018-03-14T17:05:55.356Z,60.10
2018-03-14T17:08:23.626Z,60.50
2018-03-14T17:11:01.307Z,60.40
2018-03-14T17:13:32.917Z,60.60
2018-03-14T17:16:09.428Z,61.70
2018-03-14T17:18:41.113Z,63.00
2018-03-14T17:21:11.626Z,63.70
2018-03-14T17:23:41.897Z,65.00
2018-03-14T17:26:09.591Z,65.00
2018-03-14T17:28:37.187Z,66.00
2018-03-14T17:31:04.883Z,66.20
2018-03-14T17:33:32.419Z,65.80
2018-03-14T17:36:00.720Z,64.60
2018-03-14T17:38:30.371Z,64.50
2018-03-14T17:40:57.863Z,64.80
2018-03-14T17:43:29.207Z,65.10
2018-03-14T17:46:07.534Z,65.10
2018-03-14T17:48:59.919Z,66.00
2018-03-14T17:51:41.263Z,67.90
2018-03-14T17:54:14.841Z,68.10
2018-03-14T17:56:44.676Z,67.90
2018-03-14T17:59:12.966Z,67.90
2018-03-14T18:01:41.243Z,68.50
2018-03-14T18:04:08.742Z,68.50
2018-03-14T18:06:37.053Z,69.10
2018-03-14T18:09:04.652Z,68.30
2018-03-14T18:11:35.117Z,67.80
2018-03-14T18:14:02.683Z,67.10
2018-03-14T18:16:30.122Z,66.60
2018-03-14T18:18:57.608Z,66.20
2018-03-14T18:21:25.193Z,65.50
2018-03-14T18:23:53.368Z,65.30
2018-03-14T18:26:23.900Z,65.40
2018-03-14T18:28:55.009Z,66.10
2018-03-14T18:31:23.252Z,65.80
2018-03-14T18:33:50.830Z,65.70
2018-03-14T18:36:18.333Z,66.60
2018-03-14T18:38:48.641Z,66.20
2018-03-14T18:41:16.243Z,66.10
2018-03-14T18:43:47.832Z,66.60
2018-03-14T18:46:15.342Z,66.50
2018-03-14T18:48:44.768Z,66.80
2018-03-14T18:51:12.273Z,67.00
2018-03-14T18:53:50.681Z,67.40
2018-03-14T18:56:38.846Z,68.50
2018-03-14T18:59:06.754Z,68.50
2018-03-14T19:01:35.644Z,68.80
2018-03-14T19:04:03.228Z,68.90
2018-03-14T19:06:39.460Z,68.80
2018-03-14T19:09:08.887Z,68.00
2018-03-14T19:11:43.173Z,67.60
2018-03-14T19:14:10.840Z,67.60
2018-03-14T19:16:56.022Z,67.60
2018-03-14T19:19:30.373Z,67.30
2018-03-14T19:22:12.805Z,67.60
2018-03-14T19:27:41.092Z,67.40
2018-03-14T19:30:12.356Z,67.20
2018-03-14T19:32:40.741Z,67.80
2018-03-14T19:35:08.410Z,67.80
2018-03-14T19:40:31.983Z,67.90
2018-03-14T19:43:12.373Z,68.10
2018-03-14T19:45:40.015Z,68.20
2018-03-14T19:48:10.029Z,67.40
2018-03-14T19:50:41.342Z,68.00
2018-03-14T19:53:14.742Z,67.70
2018-03-14T19:58:44.275Z,68.10
2018-03-14T20:01:12.892Z,68.80
2018-03-14T20:03:40.785Z,68.80
2018-03-14T20:06:10.126Z,68.60
2018-03-14T20:08:41.180Z,68.90
2018-03-14T20:11:11.701Z,69.90
2018-03-14T20:13:41.599Z,70.00
2018-03-14T20:16:41.747Z,70.00
2018-03-14T20:19:11.328Z,70.50
2018-03-14T20:21:39.204Z,70.30
2018-03-14T20:24:09.184Z,70.40
2018-03-14T20:26:42.705Z,70.50
2018-03-14T20:29:14.801Z,70.60
2018-03-14T20:31:42.421Z,70.70
2018-03-14T20:40:08.389Z,70.00
2018-03-14T20:42:41.808Z,70.10
2018-03-14T20:45:11.873Z,70.20
2018-03-14T20:47:43.520Z,70.30
2018-03-14T20:50:13.649Z,69.80
2018-03-14T20:52:43.310Z,70.10
2018-03-14T20:55:10.990Z,69.90
2018-03-14T20:57:41.966Z,70.00
2018-03-14T21:00:12.753Z,70.30
2018-03-14T21:02:41.386Z,70.20
2018-03-14T21:05:11.503Z,70.40
2018-03-14T21:07:39.600Z,70.60
2018-03-14T21:10:08.329Z,70.10
2018-03-14T21:12:40.233Z,70.80
2018-03-14T21:15:09.192Z,71.70
2018-03-14T21:17:42.956Z,71.20
2018-03-14T21:20:13.010Z,70.80
2018-03-14T21:22:40.531Z,71.10
2018-03-14T21:28:18.571Z,72.30
2018-03-14T21:30:54.808Z,72.20
2018-03-14T21:33:23.082Z,72.60
2018-03-14T21:35:51.352Z,73.50
2018-03-14T21:38:27.137Z,72.70
2018-03-14T21:41:02.454Z,72.80
2018-03-14T21:43:38.698Z,72.60
2018-03-14T21:46:06.205Z,72.70
2018-03-14T21:48:39.493Z,72.50
2018-03-14T21:51:10.673Z,72.60
2018-03-14T21:53:38.136Z,72.70
2018-03-14T21:56:05.620Z,72.30
2018-03-14T21:58:39.057Z,73.10
2018-03-14T22:01:09.225Z,72.50
2018-03-14T22:03:37.740Z,72.50
2018-03-14T22:06:05.295Z,72.50
2018-03-14T22:08:32.863Z,72.20
2018-03-14T22:11:00.339Z,72.10
2018-03-14T22:13:27.833Z,72.00
2018-03-14T22:15:55.313Z,72.10
2018-03-14T22:18:22.828Z,72.30
2018-03-14T22:20:50.319Z,72.60
2018-03-14T22:23:17.878Z,72.40
2018-03-14T22:25:45.369Z,72.50
2018-03-14T22:28:12.854Z,72.60
2018-03-14T22:30:40.329Z,72.70
2018-03-14T22:33:07.859Z,72.60
2018-03-14T22:35:35.364Z,72.80
2018-03-14T22:38:02.875Z,73.00
2018-03-14T22:40:31.121Z,73.10
2018-03-14T22:42:58.664Z,73.10
2018-03-14T22:45:26.157Z,73.00
2018-03-14T22:47:53.684Z,73.70
2018-03-14T22:50:21.182Z,73.60
2018-03-14T22:52:48.626Z,73.80
2018-03-14T22:55:16.118Z,73.90
2018-03-14T22:57:43.619Z,73.80
2018-03-14T23:00:11.274Z,73.90
2018-03-14T23:02:38.766Z,73.80
2018-03-14T23:05:06.261Z,73.70
2018-03-14T23:07:33.758Z,75.00
2018-03-14T23:10:01.258Z,74.20
2018-03-14T23:12:28.738Z,74.10
2018-03-14T23:14:56.224Z,74.20
2018-03-14T23:17:24.457Z,74.00
2018-03-14T23:19:52.089Z,74.80
2018-03-14T23:22:20.329Z,74.50
2018-03-14T23:24:47.822Z,74.50
2018-03-14T23:27:15.313Z,74.10
2018-03-14T23:29:43.560Z,74.80
2018-03-14T23:32:11.070Z,74.80
2018-03-14T23:34:39.326Z,75.00
2018-03-14T23:37:06.972Z,75.00
2018-03-14T23:39:34.450Z,74.70
2018-03-14T23:42:07.340Z,74.70
2018-03-14T23:44:34.831Z,75.00
2018-03-14T23:47:03.876Z,74.30
2018-03-14T23:49:32.137Z,74.60
2018-03-14T23:51:59.632Z,74.50
2018-03-14T23:54:28.021Z,74.20
2018-03-14T23:56:56.260Z,73.60
2018-03-14T23:59:23.710Z,73.60
